createdAt,value
2018-08-24T00:01:24.501Z,55.90
2018-08-24T00:03:53.751Z,56.29
2018-08-24T00:06:23.115Z,56.51
2018-08-24T00:08:52.394Z,56.08
2018-08-24T00:11:22.310Z,55.98
2018-08-24T00:13:51.347Z,56.38
2018-08-24T00:16:26.038Z,56.34
2018-08-24T00:18:54.968Z,56.32
2018-08-24T00:21:24.060Z,56.57
2018-08-24T00:23:53.285Z,56.99
2018-08-24T00:26:22.146Z,57.07
2018-08-24T00:28:51.151Z,57.28
2018-08-24T00:31:20.475Z,57.74
2018-08-24T00:33:53.542Z,57.46
2018-08-24T00:36:25.624Z,57.76
2018-08-24T00:38:54.602Z,58.10
2018-08-24T00:41:24.298Z,57.63
2018-08-24T00:43:53.775Z,57.85
2018-08-24T00:46:23.351Z,57.89
2018-08-24T00:48:52.591Z,58.51
2018-08-24T00:51:21.991Z,58.13
2018-08-24T00:53:51.734Z,58.00
2018-08-24T00:56:21.516Z,57.83
2018-08-24T00:58:51.299Z,58.30
2018-08-24T01:01:20.159Z,58.75
2018-08-24T01:03:49.969Z,58.71
2018-08-24T01:06:23.583Z,58.99
2018-08-24T01:08:52.361Z,59.43
2018-08-24T01:11:25.474Z,58.96
2018-08-24T01:13:54.435Z,58.91
2018-08-24T01:16:28.815Z,58.72
2018-08-24T01:18:57.658Z,59.10
2018-08-24T01:21:26.767Z,59.23
2018-08-24T01:23:56.511Z,58.64
2018-08-24T01:26:25.959Z,58.79
2018-08-24T01:28:55.283Z,59.31
2018-08-24T01:31:24.618Z,59.02
2018-08-24T01:33:53.413Z,58.75
2018-08-24T01:36:23.383Z,58.84
2018-08-24T01:38:53.012Z,58.91
2018-08-24T01:41:21.969Z,58.62
2018-08-24T01:43:50.878Z,58.57
2018-08-24T01:46:20.126Z,58.67
2018-08-24T01:48:49.390Z,58.80
2018-08-24T01:51:18.367Z,58.23
2018-08-24T01:53:48.732Z,58.50
2018-08-24T01:56:17.606Z,58.57
2018-08-24T01:58:46.754Z,58.51
2018-08-24T02:01:16.271Z,58.47
2018-08-24T02:03:45.430Z,58.37
2018-08-24T02:06:14.386Z,58.90
2018-08-24T02:08:43.815Z,58.44
2018-08-24T02:11:18.175Z,58.62
2018-08-24T02:13:52.348Z,58.98
2018-08-24T02:16:21.727Z,59.31
2018-08-24T02:18:56.157Z,58.85
2018-08-24T02:21:30.178Z,58.85
2018-08-24T02:23:58.879Z,59.50
2018-08-24T02:26:27.939Z,59.47
2018-08-24T02:28:56.767Z,59.52
2018-08-24T02:31:26.170Z,60.11
2018-08-24T02:33:55.035Z,60.04
2018-08-24T02:36:25.064Z,60.30
2018-08-24T02:38:54.074Z,60.52
2018-08-24T02:41:23.151Z,60.69
2018-08-24T02:43:52.434Z,60.81
2018-08-24T02:46:21.797Z,60.23
2018-08-24T02:48:51.347Z,60.24
2018-08-24T02:51:20.377Z,61.10
2018-08-24T02:53:49.583Z,61.12
2018-08-24T02:56:18.832Z,60.94
2018-08-24T02:58:47.953Z,60.78
2018-08-24T03:01:17.722Z,60.79
2018-08-24T03:03:47.251Z,60.88
2018-08-24T03:06:16.423Z,61.13
2018-08-24T03:08:45.496Z,61.20
2018-08-24T03:11:14.447Z,61.75
2018-08-24T03:13:43.635Z,61.83
2018-08-24T03:16:13.654Z,62.13
2018-08-24T03:18:42.915Z,61.97
2018-08-24T03:21:11.595Z,62.98
2018-08-24T03:23:40.670Z,62.91
2018-08-24T03:26:09.875Z,64.12
2018-08-24T03:28:39.183Z,64.21
2018-08-24T03:31:08.469Z,64.92
2018-08-24T03:33:37.444Z,64.88
2018-08-24T03:36:06.663Z,65.38
2018-08-24T03:38:35.911Z,65.05
2018-08-24T03:41:05.703Z,65.50
2018-08-24T03:43:35.162Z,65.67
2018-08-24T03:46:04.639Z,65.51
2018-08-24T03:48:33.798Z,65.30
2018-08-24T03:51:02.983Z,65.07
2018-08-24T03:53:48.527Z,64.96
2018-08-24T03:56:22.394Z,64.32
2018-08-24T03:58:57.562Z,64.18
2018-08-24T04:01:27.835Z,63.77
2018-08-24T04:04:01.622Z,62.53
2018-08-24T04:06:38.764Z,61.90
2018-08-24T04:09:08.674Z,61.03
2018-08-24T04:11:37.892Z,60.27
2018-08-24T04:14:07.146Z,60.40
2018-08-24T04:16:41.661Z,59.57
2018-08-24T04:19:18.246Z,59.28
2018-08-24T04:21:47.950Z,58.86
2018-08-24T04:24:18.028Z,58.71
2018-08-24T04:26:47.264Z,58.30
2018-08-24T04:29:18.655Z,57.09
2018-08-24T04:31:47.800Z,55.98
2018-08-24T04:34:16.982Z,54.93
2018-08-24T04:36:46.533Z,55.26
2018-08-24T04:39:15.569Z,54.98
2018-08-24T04:41:45.092Z,54.39
2018-08-24T04:44:14.495Z,53.08
2018-08-24T04:46:43.675Z,52.79
2018-08-24T04:49:12.373Z,53.73
2018-08-24T04:51:41.683Z,53.13
2018-08-24T04:54:11.230Z,52.32
2018-08-24T04:56:40.775Z,52.05
2018-08-24T04:59:10.014Z,53.06
2018-08-24T05:01:39.150Z,52.22
2018-08-24T05:04:08.063Z,51.27
2018-08-24T05:06:37.189Z,50.69
2018-08-24T05:09:09.621Z,52.26
2018-08-24T05:11:39.742Z,49.54
2018-08-24T05:14:09.225Z,47.38
2018-08-24T05:16:38.161Z,46.99
2018-08-24T05:19:11.713Z,47.46
2018-08-24T05:21:40.861Z,45.96
2018-08-24T05:24:09.886Z,44.88
2018-08-24T05:26:40.416Z,42.63
2018-08-24T05:29:09.490Z,42.73
2018-08-24T05:31:39.007Z,42.36
2018-08-24T05:34:08.530Z,41.14
2018-08-24T05:36:38.110Z,42.82
2018-08-24T05:39:09.120Z,44.11
2018-08-24T05:41:38.831Z,45.88
2018-08-24T05:44:07.962Z,46.06
2018-08-24T05:46:37.898Z,48.02
2018-08-24T05:49:06.810Z,48.53
2018-08-24T05:51:35.879Z,46.35
2018-08-24T05:54:04.769Z,43.71
2018-08-24T05:56:34.409Z,43.25
2018-08-24T05:59:04.369Z,44.10
2018-08-24T06:01:34.374Z,43.04
2018-08-24T06:04:03.836Z,43.48
2018-08-24T06:06:32.704Z,46.21
2018-08-24T06:09:07.599Z,44.59
2018-08-24T06:11:36.631Z,44.43
2018-08-24T06:14:05.638Z,43.98
2018-08-24T06:16:34.877Z,41.93
2018-08-24T06:19:03.712Z,41.16
2018-08-24T06:21:32.602Z,40.17
2018-08-24T06:24:01.892Z,38.60
2018-08-24T06:26:48.371Z,38.20
2018-08-24T06:29:24.745Z,40.14
2018-08-24T06:31:56.592Z,40.52
2018-08-24T06:34:29.289Z,38.97
2018-08-24T06:37:08.708Z,36.93
2018-08-24T06:39:41.301Z,36.04
2018-08-24T06:42:19.763Z,35.78
2018-08-24T06:44:53.198Z,35.35
2018-08-24T06:47:25.108Z,36.37
2018-08-24T06:49:55.089Z,36.37
2018-08-24T06:52:36.353Z,36.87
2018-08-24T06:55:08.116Z,37.78
2018-08-24T06:57:37.643Z,37.51
2018-08-24T07:00:08.098Z,37.38
2018-08-24T07:02:39.173Z,37.76
2018-08-24T07:05:10.245Z,37.44
2018-08-24T07:07:42.904Z,37.34
2018-08-24T07:10:15.615Z,36.64
2018-08-24T07:12:45.320Z,36.55
2018-08-24T07:15:16.447Z,36.75
2018-08-24T07:23:39.309Z,34.39
2018-08-24T07:26:08.303Z,37.58
2018-08-24T07:28:37.171Z,37.54
2018-08-24T07:31:06.555Z,37.98
2018-08-24T07:33:36.436Z,36.68
2018-08-24T07:36:05.462Z,36.03
2018-08-24T07:38:35.039Z,35.89
2018-08-24T07:41:04.207Z,36.47
2018-08-24T07:43:33.311Z,36.89
2018-08-24T07:46:02.363Z,36.59
2018-08-24T07:48:31.307Z,36.19
2018-08-24T07:51:00.292Z,34.43
2018-08-24T07:53:29.836Z,37.34
2018-08-24T07:55:58.904Z,36.78
2018-08-24T07:58:27.656Z,36.75
2018-08-24T08:00:56.611Z,36.00
2018-08-24T08:03:25.793Z,35.66
2018-08-24T08:05:55.119Z,37.26
2018-08-24T08:08:24.207Z,37.54
2018-08-24T08:10:53.128Z,37.61
2018-08-24T08:13:21.945Z,39.54
2018-08-24T08:15:51.742Z,39.96
2018-08-24T08:18:20.748Z,38.89
2018-08-24T08:20:49.672Z,38.05
2018-08-24T08:23:18.779Z,38.10
2018-08-24T08:25:47.866Z,37.86
2018-08-24T08:28:17.159Z,36.49
2018-08-24T08:30:46.688Z,35.57
2018-08-24T08:33:15.768Z,35.79
2018-08-24T08:35:45.095Z,37.21
2018-08-24T08:38:17.605Z,37.31
2018-08-24T08:40:46.724Z,37.16
2018-08-24T08:43:16.678Z,36.59
2018-08-24T08:45:45.531Z,37.36
2018-08-24T08:48:14.548Z,37.36
2018-08-24T08:50:44.066Z,37.15
2018-08-24T08:53:13.489Z,36.27
2018-08-24T08:55:42.549Z,36.87
2018-08-24T08:58:12.141Z,35.68
2018-08-24T09:00:41.347Z,36.18
2018-08-24T09:03:10.884Z,35.37
2018-08-24T09:05:40.036Z,35.37
2018-08-24T09:08:09.247Z,35.57
2018-08-24T09:10:39.325Z,34.06
2018-08-24T09:13:08.587Z,34.16
2018-08-24T09:15:38.015Z,34.67
2018-08-24T09:18:12.290Z,35.07
2018-08-24T09:20:46.443Z,33.99
2018-08-24T09:23:21.266Z,33.97
2018-08-24T09:25:55.476Z,35.10
2018-08-24T09:28:35.930Z,34.44
2018-08-24T09:31:11.283Z,33.65
2018-08-24T09:33:40.747Z,33.55
2018-08-24T09:36:15.047Z,34.36
2018-08-24T09:38:44.490Z,34.20
2018-08-24T09:41:13.603Z,34.35
2018-08-24T09:43:47.897Z,34.11
2018-08-24T09:46:16.988Z,34.42
2018-08-24T09:48:51.173Z,34.43
2018-08-24T09:51:27.490Z,33.89
2018-08-24T09:54:02.730Z,34.26
2018-08-24T09:56:32.787Z,33.96
2018-08-24T09:59:02.205Z,33.66
2018-08-24T10:02:38.974Z,32.48
2018-08-24T10:05:12.907Z,33.02
2018-08-24T10:07:45.990Z,34.90
2018-08-24T10:10:14.920Z,33.93
2018-08-24T10:12:43.840Z,34.70
2018-08-24T10:15:13.149Z,34.93
2018-08-24T10:17:42.342Z,34.91
2018-08-24T10:20:11.431Z,34.96
2018-08-24T10:22:40.831Z,35.40
2018-08-24T10:25:10.559Z,34.75
2018-08-24T10:27:39.549Z,34.20
2018-08-24T10:30:08.910Z,34.26
2018-08-24T10:32:38.039Z,33.73
2018-08-24T10:35:06.961Z,34.16
2018-08-24T10:37:36.311Z,35.00
2018-08-24T10:40:05.125Z,34.92
2018-08-24T10:42:34.284Z,34.85
2018-08-24T10:45:03.554Z,35.53
2018-08-24T10:47:32.631Z,34.49
2018-08-24T10:50:01.720Z,33.96
2018-08-24T10:52:30.894Z,33.59
2018-08-24T10:55:00.178Z,33.34
2018-08-24T10:57:29.256Z,34.17
2018-08-24T10:59:58.699Z,34.63
2018-08-24T11:02:27.600Z,34.60
2018-08-24T11:04:56.549Z,33.95
2018-08-24T11:07:25.885Z,33.25
2018-08-24T11:09:54.899Z,33.63
2018-08-24T11:12:28.839Z,33.36
2018-08-24T11:14:58.136Z,33.50
2018-08-24T11:17:32.250Z,33.72
2018-08-24T11:20:01.486Z,34.09
2018-08-24T11:22:30.615Z,34.31
2018-08-24T11:25:00.144Z,33.89
2018-08-24T11:27:29.276Z,34.57
2018-08-24T11:29:58.541Z,33.71
2018-08-24T11:32:27.844Z,33.53
2018-08-24T11:34:57.027Z,33.76
2018-08-24T11:37:26.145Z,34.13
2018-08-24T11:39:55.679Z,33.95
2018-08-24T11:42:25.046Z,34.13
2018-08-24T11:44:54.089Z,33.94
2018-08-24T11:47:23.457Z,34.02
2018-08-24T11:49:52.835Z,34.00
2018-08-24T11:52:22.658Z,34.54
2018-08-24T11:54:51.804Z,34.58
2018-08-24T11:57:21.644Z,34.44
2018-08-24T11:59:51.216Z,33.81
2018-08-24T12:02:20.723Z,32.91
2018-08-24T12:04:49.779Z,33.00
2018-08-24T12:07:18.969Z,33.65
2018-08-24T12:09:48.091Z,33.87
2018-08-24T12:12:17.282Z,34.08
2018-08-24T12:14:46.512Z,33.72
2018-08-24T12:17:21.650Z,34.41
2018-08-24T12:19:50.894Z,33.72
2018-08-24T12:22:19.597Z,32.84
2018-08-24T12:24:49.145Z,32.33
2018-08-24T12:27:18.404Z,31.68
2018-08-24T12:29:47.620Z,32.01
2018-08-24T12:32:17.727Z,32.41
2018-08-24T12:34:46.733Z,32.13
2018-08-24T12:37:15.674Z,31.34
2018-08-24T12:39:44.760Z,31.00
2018-08-24T12:42:14.123Z,30.22
2018-08-24T12:44:43.315Z,30.96
2018-08-24T12:47:13.441Z,30.48
2018-08-24T12:49:42.623Z,30.56
2018-08-24T12:52:11.831Z,30.22
2018-08-24T12:54:41.242Z,29.79
2018-08-24T12:57:10.140Z,30.04
2018-08-24T12:59:39.332Z,29.73
2018-08-24T13:02:08.464Z,30.35
2018-08-24T13:04:37.524Z,31.44
2018-08-24T13:07:06.602Z,31.74
2018-08-24T13:09:35.569Z,31.17
2018-08-24T13:12:04.415Z,30.51
2018-08-24T13:14:33.579Z,29.71
2018-08-24T13:17:03.090Z,29.44
2018-08-24T13:19:32.210Z,29.17
2018-08-24T13:22:01.419Z,28.98
2018-08-24T13:24:30.720Z,29.03
2018-08-24T13:26:59.620Z,28.93
2018-08-24T13:29:28.630Z,29.17
2018-08-24T13:31:58.231Z,28.52
2018-08-24T13:34:27.374Z,30.24
2018-08-24T13:36:56.579Z,30.13
2018-08-24T13:39:26.084Z,29.81
2018-08-24T13:41:55.232Z,29.74
2018-08-24T13:44:24.375Z,30.30
2018-08-24T13:46:53.802Z,31.19
2018-08-24T13:49:22.671Z,30.70
2018-08-24T13:51:51.691Z,29.85
2018-08-24T13:54:21.130Z,30.14
2018-08-24T13:56:50.815Z,31.90
2018-08-24T13:59:20.098Z,31.76
2018-08-24T14:01:49.770Z,32.84
2018-08-24T14:04:18.980Z,32.44
2018-08-24T14:06:48.090Z,33.54
2018-08-24T14:09:17.233Z,33.78
2018-08-24T14:11:46.227Z,34.47
2018-08-24T14:14:15.213Z,34.94
2018-08-24T14:16:44.451Z,34.39
2018-08-24T14:19:13.624Z,34.60
2018-08-24T14:21:42.814Z,34.97
2018-08-24T14:24:12.342Z,35.35
2018-08-24T14:26:41.648Z,34.85
2018-08-24T14:29:10.759Z,35.16
2018-08-24T14:31:40.507Z,34.38
2018-08-24T14:34:09.459Z,34.24
2018-08-24T14:36:38.412Z,34.34
2018-08-24T14:39:09.423Z,34.20
2018-08-24T14:41:38.484Z,34.51
2018-08-24T14:44:08.048Z,33.60
2018-08-24T14:46:37.297Z,33.23
2018-08-24T14:49:06.342Z,33.66
2018-08-24T14:51:35.547Z,33.48
2018-08-24T14:54:04.937Z,34.22
2018-08-24T14:56:33.956Z,35.91
2018-08-24T14:59:03.056Z,36.65
2018-08-24T15:01:32.359Z,36.31
2018-08-24T15:04:01.832Z,37.10
2018-08-24T15:06:30.803Z,36.85
2018-08-24T15:09:01.482Z,36.58
2018-08-24T15:11:30.696Z,36.69
2018-08-24T15:13:59.807Z,36.05
2018-08-24T15:16:29.220Z,36.49
2018-08-24T15:18:58.056Z,36.07
2018-08-24T15:21:26.972Z,36.96
2018-08-24T15:23:56.410Z,36.78
2018-08-24T15:26:25.459Z,37.07
2018-08-24T15:28:54.758Z,37.41
2018-08-24T15:31:24.208Z,37.47
2018-08-24T15:33:53.287Z,37.85
2018-08-24T15:36:22.382Z,37.66
2018-08-24T15:38:51.702Z,37.93
2018-08-24T15:44:04.543Z,36.94
2018-08-24T15:46:33.787Z,37.55
2018-08-24T15:49:02.787Z,37.23
2018-08-24T15:51:31.934Z,37.32
2018-08-24T15:54:00.980Z,38.04
2018-08-24T15:56:30.099Z,38.34
2018-08-24T15:58:59.624Z,38.23
2018-08-24T16:01:29.112Z,37.85
2018-08-24T16:03:58.766Z,38.43
2018-08-24T16:06:28.071Z,37.65
2018-08-24T16:08:57.315Z,37.83
2018-08-24T16:11:26.536Z,38.33
2018-08-24T16:13:55.822Z,38.47
2018-08-24T16:16:24.915Z,38.39
2018-08-24T16:18:54.126Z,38.09
2018-08-24T16:21:23.627Z,38.89
2018-08-24T16:23:52.818Z,39.03
2018-08-24T16:26:24.814Z,38.75
2018-08-24T16:28:54.326Z,38.86
2018-08-24T16:31:24.027Z,39.16
2018-08-24T16:33:53.552Z,39.20
2018-08-24T16:36:22.611Z,39.26
2018-08-24T16:38:51.696Z,39.60
2018-08-24T16:41:20.991Z,39.84
2018-08-24T16:43:50.416Z,39.86
2018-08-24T16:46:19.403Z,40.37
2018-08-24T16:48:48.800Z,40.15
2018-08-24T16:51:17.893Z,39.95
2018-08-24T16:53:46.995Z,41.06
2018-08-24T16:56:15.923Z,41.02
2018-08-24T16:58:45.257Z,42.16
2018-08-24T17:01:14.442Z,42.58
2018-08-24T17:03:43.817Z,43.04
2018-08-24T17:06:13.200Z,42.89
2018-08-24T17:08:42.202Z,43.10
2018-08-24T17:11:11.914Z,43.72
2018-08-24T17:13:41.095Z,44.38
2018-08-24T17:16:10.101Z,44.36
2018-08-24T17:18:39.210Z,44.48
2018-08-24T17:21:08.172Z,44.22
2018-08-24T17:23:37.171Z,44.41
2018-08-24T17:26:06.910Z,44.72
2018-08-24T17:28:36.165Z,44.12
2018-08-24T17:31:05.224Z,44.74
2018-08-24T17:33:34.718Z,44.32
2018-08-24T17:36:03.820Z,44.76
2018-08-24T17:38:32.816Z,44.36
2018-08-24T17:41:02.319Z,44.52
2018-08-24T17:43:31.389Z,44.84
2018-08-24T17:46:00.570Z,45.15
2018-08-24T17:48:29.886Z,45.57
2018-08-24T17:50:58.899Z,45.59
2018-08-24T17:53:28.194Z,46.47
2018-08-24T17:55:57.382Z,46.25
2018-08-24T17:58:26.483Z,46.63
2018-08-24T18:00:55.704Z,46.68
2018-08-24T18:03:25.084Z,47.35
2018-08-24T18:05:54.229Z,47.49
2018-08-24T18:08:23.192Z,47.53
2018-08-24T18:10:52.710Z,47.51
2018-08-24T18:13:21.996Z,47.91
2018-08-24T18:15:51.017Z,47.81
2018-08-24T18:18:20.335Z,48.17
2018-08-24T18:20:49.360Z,47.83
2018-08-24T18:23:18.900Z,48.47
2018-08-24T18:25:48.222Z,48.38
2018-08-24T18:28:17.542Z,47.48
2018-08-24T18:30:46.392Z,47.71
2018-08-24T18:33:16.572Z,47.59
2018-08-24T18:35:45.572Z,48.05
2018-08-24T18:38:14.674Z,46.37
2018-08-24T18:40:44.078Z,46.63
2018-08-24T18:43:13.687Z,46.89
2018-08-24T18:45:43.108Z,46.78
2018-08-24T18:48:12.654Z,46.47
2018-08-24T18:50:41.814Z,46.70
2018-08-24T18:53:10.804Z,46.17
2018-08-24T18:55:39.861Z,43.65
2018-08-24T18:58:09.195Z,41.63
2018-08-24T19:00:38.523Z,40.76
2018-08-24T19:03:07.947Z,40.72
2018-08-24T19:05:37.027Z,40.39
2018-08-24T19:08:09.551Z,38.79
2018-08-24T19:10:44.039Z,39.26
2018-08-24T19:13:15.361Z,40.61
2018-08-24T19:15:45.413Z,41.53
2018-08-24T19:18:19.602Z,41.76
2018-08-24T19:20:53.797Z,42.23
2018-08-24T19:23:22.850Z,41.71
2018-08-24T19:25:51.984Z,42.30
2018-08-24T19:28:26.294Z,43.14
2018-08-24T19:30:55.337Z,42.81
2018-08-24T19:33:24.404Z,43.17
2018-08-24T19:35:54.067Z,43.00
2018-08-24T19:38:23.126Z,43.32
2018-08-24T19:40:57.743Z,42.38
2018-08-24T19:43:26.736Z,42.79
2018-08-24T19:45:55.641Z,42.44
2018-08-24T19:48:30.371Z,42.65
2018-08-24T19:50:59.403Z,42.83
2018-08-24T19:53:28.636Z,42.44
2018-08-24T19:55:57.781Z,42.55
2018-08-24T19:58:31.860Z,43.28
2018-08-24T20:01:01.311Z,43.46
2018-08-24T20:03:30.366Z,43.32
2018-08-24T20:06:04.765Z,43.62
2018-08-24T20:08:38.937Z,43.81
2018-08-24T20:11:08.315Z,44.13
2018-08-24T20:13:37.368Z,43.81
2018-08-24T20:16:11.830Z,44.57
2018-08-24T20:18:40.941Z,44.46
2018-08-24T20:21:09.759Z,44.89
2018-08-24T20:23:39.077Z,44.99
2018-08-24T20:26:08.428Z,45.73
2018-08-24T20:28:37.396Z,46.17
2018-08-24T20:31:06.771Z,46.22
2018-08-24T20:33:35.737Z,46.95
2018-08-24T20:36:04.842Z,47.45
2018-08-24T20:38:34.344Z,48.53
2018-08-24T20:41:03.366Z,49.13
2018-08-24T20:43:32.390Z,49.25
2018-08-24T20:46:01.998Z,49.96
2018-08-24T20:48:30.918Z,49.88
2018-08-24T20:51:00.023Z,50.01
2018-08-24T20:53:29.327Z,50.52
2018-08-24T20:55:58.593Z,50.66
2018-08-24T20:58:27.792Z,50.44
2018-08-24T21:00:57.182Z,50.57
2018-08-24T21:03:26.404Z,51.04
2018-08-24T21:05:55.555Z,51.04
2018-08-24T21:08:24.886Z,50.93
2018-08-24T21:10:54.414Z,50.29
2018-08-24T21:13:23.432Z,50.73
2018-08-24T21:15:52.538Z,50.81
2018-08-24T21:18:21.511Z,50.22
2018-08-24T21:20:50.654Z,50.21
2018-08-24T21:23:20.556Z,50.30
2018-08-24T21:25:49.521Z,49.96
2018-08-24T21:28:18.398Z,50.33
2018-08-24T21:30:47.552Z,50.15
2018-08-24T21:33:17.016Z,49.77
2018-08-24T21:35:46.056Z,49.88
2018-08-24T21:38:15.439Z,49.22
2018-08-24T21:40:44.501Z,49.11
2018-08-24T21:43:13.723Z,49.07
2018-08-24T21:45:43.530Z,48.61
2018-08-24T21:48:12.610Z,48.33
2018-08-24T21:50:41.483Z,48.29
2018-08-24T21:53:11.278Z,47.65
2018-08-24T21:55:40.303Z,47.58
2018-08-24T21:58:09.442Z,47.74
2018-08-24T22:00:42.709Z,47.53
2018-08-24T22:03:12.992Z,47.57
2018-08-24T22:05:42.330Z,47.60
2018-08-24T22:08:11.653Z,47.69
2018-08-24T22:10:40.434Z,47.79
2018-08-24T22:13:10.010Z,48.26
2018-08-24T22:15:39.590Z,48.65
2018-08-24T22:18:09.144Z,49.06
2018-08-24T22:20:38.152Z,49.51
2018-08-24T22:23:07.470Z,49.18
2018-08-24T22:25:36.450Z,49.60
2018-08-24T22:28:05.459Z,49.46
2018-08-24T22:30:34.670Z,48.99
2018-08-24T22:33:03.911Z,49.00
2018-08-24T22:35:32.943Z,49.40
2018-08-24T22:38:02.337Z,49.51
2018-08-24T22:40:31.324Z,49.08
2018-08-24T22:43:00.590Z,49.21
2018-08-24T22:45:29.894Z,49.21
2018-08-24T22:47:58.821Z,49.13
2018-08-24T22:50:27.898Z,49.12
2018-08-24T22:52:57.255Z,49.42
2018-08-24T22:55:26.275Z,49.15
2018-08-24T22:57:55.263Z,49.66
2018-08-24T23:00:24.620Z,49.77
2018-08-24T23:05:21.578Z,49.81
2018-08-24T23:07:50.998Z,49.95
2018-08-24T23:10:20.830Z,49.97
2018-08-24T23:12:50.113Z,50.36
2018-08-24T23:15:19.550Z,50.42
2018-08-24T23:17:48.496Z,51.18
2018-08-24T23:20:17.379Z,51.10
2018-08-24T23:22:46.850Z,51.21
2018-08-24T23:25:15.887Z,51.69
2018-08-24T23:27:44.978Z,52.13
2018-08-24T23:30:14.048Z,52.48
2018-08-24T23:32:43.763Z,52.79
2018-08-24T23:35:12.811Z,52.78
2018-08-24T23:37:42.431Z,52.73
2018-08-24T23:40:11.712Z,53.18
2018-08-24T23:42:40.712Z,53.81
2018-08-24T23:45:10.343Z,53.90
2018-08-24T23:47:39.363Z,53.64
2018-08-24T23:50:08.823Z,53.19
2018-08-24T23:52:38.240Z,53.11
2018-08-24T23:55:07.391Z,54.20
2018-08-24T23:57:36.401Z,54.07
